Time;durP1;ratioP1;P1;durP2;ratioP2;P2;SDS_P1;SDS_P2;PMS_P1;PMS_P2;Temp;Humidity;BMP_temperature;BMP_pressure;BME280_temperature;BME280_humidity;BME280_pressure;Samples;Min_cycle;Max_cycle;Signal;HPM_P1;HPM_P2
2022/12/11 00:01:29;;;;;;;78.83;41.47;;;;;;;-10.40;89.46;99095.05;1745620;81;21074;-74
2022/12/11 00:03:56;;;;;;;82.83;43.97;;;;;;;-10.52;89.30;99094.73;1739518;81;21112;-74
2022/12/11 00:06:23;;;;;;;103.87;55.13;;;;;;;-10.60;89.42;99092.84;1743169;81;21137;-74
2022/12/11 00:08:54;;;;;;;83.80;45.45;;;;;;;-10.66;89.44;99095.22;1741778;80;21377;-74
2022/12/11 00:11:22;;;;;;;100.38;52.80;;;;;;;-10.70;89.44;99102.23;1746139;80;21469;-74
2022/12/11 00:13:50;;;;;;;71.53;41.58;;;;;;;-10.78;89.34;99094.89;1743294;81;21051;-74
2022/12/11 00:16:16;;;;;;;;;;;;;;;-10.84;89.34;99094.70;1754821;80;21017;-74
2022/12/11 00:18:43;;;;;;;76.73;43.33;;;;;;;-10.91;89.35;99095.36;1742946;80;20207;-74
2022/12/11 00:21:14;;;;;;;73.50;39.63;;;;;;;-10.91;89.57;99095.36;1743558;80;21120;-74
2022/12/11 00:23:41;;;;;;;71.55;37.63;;;;;;;-10.90;89.65;99094.53;1740962;80;21113;-74
2022/12/11 00:26:12;;;;;;;66.82;36.00;;;;;;;-10.96;89.50;99099.41;1742999;81;21177;-74
2022/12/11 00:28:41;;;;;;;69.90;36.95;;;;;;;-11.01;89.47;99105.98;1746087;81;21347;-74
2022/12/11 00:31:12;;;;;;;67.75;35.13;;;;;;;-11.02;89.54;99094.20;1748100;81;21093;-74
2022/12/11 00:33:38;;;;;;;60.80;32.25;;;;;;;-11.02;89.58;99089.16;1743649;81;21100;-74
2022/12/11 00:36:12;;;;;;;59.70;31.50;;;;;;;-11.04;89.55;99092.88;1743885;81;21093;-74
2022/12/11 00:38:39;;;;;;;58.05;30.55;;;;;;;-11.07;89.48;99087.34;1755578;80;21081;-74
2022/12/11 00:41:06;;;;;;;;;;;;;;;-11.09;89.49;99094.03;1757354;80;21585;-74
2022/12/11 00:43:32;;;;;;;58.63;29.80;;;;;;;-11.11;89.49;99095.64;1733688;80;20510;-74
2022/12/11 00:45:59;;;;;;;61.83;32.87;;;;;;;-11.19;89.23;99094.56;1746545;80;21069;-74
2022/12/11 00:48:25;;;;;;;64.45;32.53;;;;;;;-11.27;89.03;99098.52;1743644;80;21109;-74
2022/12/11 00:50:52;;;;;;;62.67;33.08;;;;;;;-11.34;88.82;99101.66;1755998;81;21172;-74
2022/12/11 00:53:19;;;;;;;60.20;33.65;;;;;;;-11.44;88.75;99114.80;1752251;81;21037;-74
2022/12/11 00:55:45;;;;;;;61.45;33.40;;;;;;;-11.47;88.98;99094.56;1752332;81;21073;-74
2022/12/11 00:58:12;;;;;;;64.50;36.13;;;;;;;-11.44;89.25;99098.43;1753883;81;21545;-74
2022/12/11 01:00:40;;;;;;;69.33;36.07;;;;;;;-11.38;89.54;99103.23;1753190;81;20967;-74
2022/12/11 01:03:07;;;;;;;74.62;37.80;;;;;;;-11.33;89.56;99105.91;1749891;80;21947;-74
2022/12/11 01:05:34;;;;;;;81.65;38.25;;;;;;;-11.32;89.54;99099.63;1751370;81;21597;-74
2022/12/11 01:08:02;;;;;;;69.42;37.13;;;;;;;-11.35;89.36;99092.39;1750297;81;21648;-74
2022/12/11 01:10:30;;;;;;;72.12;38.40;;;;;;;-11.38;89.28;99102.39;1752979;80;21505;-73
2022/12/11 01:13:04;;;;;;;66.70;33.00;;;;;;;-11.38;89.37;99101.13;1749630;81;21010;-74
2022/12/11 01:15:41;;;;;;;72.32;38.10;;;;;;;-11.42;89.20;99095.56;1751938;81;21482;-74
2022/12/11 01:18:08;;;;;;;;;;;;;;;-11.44;89.26;99102.21;1752395;80;21165;-74
2022/12/11 01:20:37;;;;;;;60.70;30.05;;;;;;;-11.42;89.31;99098.08;1751771;81;20155;-74
2022/12/11 01:23:04;;;;;;;62.45;32.70;;;;;;;-11.43;89.37;99096.34;1755921;81;21070;-74
2022/12/11 01:25:32;;;;;;;55.30;31.05;;;;;;;-11.42;89.41;99098.08;1752453;80;21037;-73
2022/12/11 01:27:59;;;;;;;;;;;;;;;-11.43;89.41;99097.61;1753188;80;21342;-74
2022/12/11 01:30:26;;;;;;;55.20;30.32;;;;;;;-11.44;89.33;99103.47;1751750;81;20172;-74
2022/12/11 01:32:52;;;;;;;49.80;26.75;;;;;;;-11.45;89.33;99097.95;1753115;80;21109;-74
2022/12/11 01:35:20;;;;;;;63.35;31.87;;;;;;;-11.41;89.47;99098.52;1752948;81;21078;-74
2022/12/11 01:37:47;;;;;;;63.00;29.82;;;;;;;-11.44;89.27;99094.65;1750044;81;20991;-74
2022/12/11 01:40:18;;;;;;;60.30;31.73;;;;;;;-11.29;89.77;99091.31;1746293;81;21691;-74
2022/12/11 01:42:44;;;;;;;64.30;32.40;;;;;;;-11.09;90.16;99094.03;1757342;81;21105;-74
2022/12/11 01:45:40;;;;;;;70.52;35.00;;;;;;;-10.89;90.40;99082.39;1750982;81;21053;-73
2022/12/11 01:48:12;;;;;;;60.65;30.75;;;;;;;-10.71;90.53;99077.83;1749287;81;21066;-74
2022/12/11 01:50:49;;;;;;;55.95;29.82;;;;;;;-10.49;90.64;99083.05;1754597;81;21619;-73
2022/12/11 01:53:34;;;;;;;58.98;31.48;;;;;;;-10.34;90.60;99080.05;1748694;81;21515;-73
2022/12/11 01:56:02;;;;;;;58.40;30.30;;;;;;;-10.17;90.72;99073.72;1745043;81;21041;-73
2022/12/11 01:58:40;;;;;;;61.13;30.45;;;;;;;-9.99;90.81;99069.97;1725319;81;21124;-74
2022/12/11 02:01:10;;;;;;;54.65;28.20;;;;;;;-9.80;91.05;99072.11;1751108;81;21050;-74
2022/12/11 02:03:36;;;;;;;52.40;28.32;;;;;;;-9.71;90.83;99064.73;1755994;81;21070;-74
2022/12/11 02:06:04;;;;;;;49.30;27.93;;;;;;;-9.61;90.80;99062.41;1756271;81;21517;-74
2022/12/11 02:08:30;;;;;;;53.13;27.27;;;;;;;-9.59;90.70;99055.73;1755551;81;21073;-74
2022/12/11 02:11:14;;;;;;;47.53;26.63;;;;;;;-9.55;90.71;99057.11;1762934;80;21044;-74
2022/12/11 02:13:58;;;;;;;58.85;28.95;;;;;;;-9.53;90.62;99061.76;1752260;81;21101;-74
2022/12/11 02:16:50;;;;;;;52.70;26.42;;;;;;;-9.50;90.54;99059.71;1751635;81;21057;-74
2022/12/11 02:19:53;;;;;;;49.98;25.35;;;;;;;-9.35;90.84;99067.65;1744476;81;21037;-74
2022/12/11 02:22:37;;;;;;;44.53;24.98;;;;;;;-9.19;91.05;99065.43;1749003;81;21144;-74
2022/12/11 02:25:56;;;;;;;47.48;24.35;;;;;;;-9.01;91.25;99064.55;1753435;81;20986;-74
2022/12/11 02:28:54;;;;;;;47.53;25.88;;;;;;;-8.73;91.67;99065.10;1747359;81;21112;-74
2022/12/11 02:31:37;;;;;;;49.77;25.43;;;;;;;-8.49;91.74;99060.47;1750267;81;21160;-73
2022/12/11 02:34:20;;;;;;;47.15;27.52;;;;;;;-8.36;91.62;99051.41;1753176;81;21108;-74
2022/12/11 02:36:52;;;;;;;58.17;31.87;;;;;;;-8.31;91.31;99048.96;1757252;81;21372;-73
2022/12/11 02:39:21;;;;;;;55.05;28.98;;;;;;;-8.35;91.06;99052.67;1743745;81;21533;-74
2022/12/11 02:41:50;;;;;;;54.73;29.92;;;;;;;-8.21;91.50;99048.27;1752999;81;21136;-74
2022/12/11 02:44:24;;;;;;;54.35;28.67;;;;;;;-7.99;91.93;99040.20;1754610;81;21553;-74
2022/12/11 02:46:53;;;;;;;57.43;30.20;;;;;;;-7.86;91.82;99040.41;1754555;81;21050;-74
2022/12/11 02:49:22;;;;;;;53.92;28.70;;;;;;;-7.78;91.73;99035.89;1752074;81;21087;-73
2022/12/11 02:51:51;;;;;;;60.10;32.05;;;;;;;-7.57;92.13;99039.14;1754574;79;20986;-74
2022/12/11 02:54:26;;;;;;;59.18;35.48;;;;;;;-7.51;91.78;99044.29;1759383;81;21101;-74
2022/12/11 02:57:01;;;;;;;61.53;31.87;;;;;;;-7.47;91.61;99025.77;1755289;81;21064;-74
2022/12/11 02:59:38;;;;;;;56.08;32.25;;;;;;;-7.37;91.94;99030.95;1750913;81;21085;-74
2022/12/11 03:02:05;;;;;;;61.37;34.27;;;;;;;-7.23;92.12;99029.45;1751871;81;21019;-74
2022/12/11 03:04:35;;;;;;;60.67;30.95;;;;;;;-7.13;92.21;99037.62;1756328;81;21310;-74
2022/12/11 03:07:12;;;;;;;53.95;29.67;;;;;;;-7.05;92.17;99043.65;1759501;81;21647;-74
2022/12/11 03:09:47;;;;;;;64.05;32.78;;;;;;;-7.00;92.02;99038.22;1729294;81;21014;-75
2022/12/11 03:12:23;;;;;;;63.60;34.53;;;;;;;-7.05;91.70;99043.65;1753824;81;21049;-74
2022/12/11 03:14:50;;;;;;;65.95;34.53;;;;;;;-6.99;92.02;99039.91;1759382;81;21612;-74
2022/12/11 03:17:25;;;;;;;85.40;37.73;;;;;;;-6.92;92.08;99032.36;1757825;81;21457;-74
2022/12/11 03:20:28;;;;;;;77.17;38.98;;;;;;;-6.84;92.28;99030.77;1755615;81;21033;-74
2022/12/11 03:23:23;;;;;;;79.65;39.23;;;;;;;-6.83;92.10;99035.03;1749674;80;21522;-74
2022/12/11 03:26:03;;;;;;;68.50;35.23;;;;;;;-6.90;91.62;99023.09;1751216;81;21418;-74
2022/12/11 03:28:52;;;;;;;71.30;38.30;;;;;;;-6.90;91.80;99012.94;1754662;81;21019;-74
2022/12/11 03:31:47;;;;;;;71.67;38.20;;;;;;;-6.86;91.90;99019.73;1750936;81;21116;-74
2022/12/11 03:34:18;;;;;;;72.55;36.13;;;;;;;-6.78;92.13;99020.28;1753329;81;21085;-74
2022/12/11 03:36:47;;;;;;;74.30;37.80;;;;;;;-6.82;91.89;99024.03;1757938;81;21520;-75
2022/12/11 03:39:35;;;;;;;75.08;37.58;;;;;;;-6.80;91.92;99026.17;1754446;81;21577;-74
2022/12/11 03:42:05;;;;;;;80.45;40.98;;;;;;;-6.70;92.23;99013.99;1752952;81;21556;-74
2022/12/11 03:44:34;;;;;;;72.78;39.15;;;;;;;-6.68;92.12;99017.41;1745918;81;21053;-74
2022/12/11 03:47:05;;;;;;;69.42;36.58;;;;;;;-6.64;92.15;99014.05;1750606;81;21108;-74
2022/12/11 03:49:36;;;;;;;70.97;37.23;;;;;;;-6.56;92.25;99012.44;1753844;81;20983;-74
2022/12/11 03:52:06;;;;;;;74.37;39.60;;;;;;;-6.64;91.87;99010.66;1749063;81;21124;-74
2022/12/11 03:54:34;;;;;;;69.25;35.48;;;;;;;-6.60;92.17;99020.03;1748562;81;21086;-74
2022/12/11 03:57:03;;;;;;;73.15;39.33;;;;;;;-6.56;92.26;99020.06;1748769;81;21050;-75
2022/12/11 03:59:30;;;;;;;73.92;39.03;;;;;;;-6.49;92.47;99016.34;1745474;81;21774;-74
2022/12/11 04:01:57;;;;;;;82.27;41.15;;;;;;;-6.39;92.63;99023.19;1754000;81;21005;-74
2022/12/11 04:04:23;;;;;;;78.70;43.00;;;;;;;-6.39;92.26;99022.77;1752761;81;21137;-74
2022/12/11 04:06:50;;;;;;;73.05;39.42;;;;;;;-6.40;92.11;99013.88;1742526;81;21563;-74
2022/12/11 04:09:16;;;;;;;78.73;40.97;;;;;;;-6.58;91.42;99011.59;1749719;81;21045;-74
2022/12/11 04:11:43;;;;;;;75.50;40.33;;;;;;;-6.81;91.13;99018.10;1754790;80;21092;-74
2022/12/11 04:16:59;;;;;;;68.72;36.20;;;;;;;-7.10;91.11;99011.02;1756786;81;21081;-74
2022/12/11 04:25:01;;;;;;;69.15;35.58;;;;;;;-7.64;91.21;99014.55;1753460;81;21135;-74
2022/12/11 04:30:18;;;;;;;68.60;34.18;;;;;;;-7.80;91.13;99010.08;1744386;81;21089;-74
2022/12/11 04:32:44;;;;;;;60.50;30.52;;;;;;;-7.91;91.16;99009.50;1748145;81;21060;-74
2022/12/11 04:35:12;;;;;;;61.60;33.60;;;;;;;-7.97;91.13;99009.41;1753264;81;21093;-74
2022/12/11 04:37:40;;;;;;;51.70;28.92;;;;;;;-8.06;91.12;99011.81;1746573;81;21013;-74
2022/12/11 04:40:09;;;;;;;;;;;;;;;-8.14;91.11;99014.63;1755786;81;21160;-74
2022/12/11 04:42:36;;;;;;;51.90;27.82;;;;;;;-8.25;90.96;99018.67;1754933;81;20230;-74
2022/12/11 04:45:04;;;;;;;48.48;27.02;;;;;;;-8.33;91.06;99013.05;1749363;81;21532;-74
2022/12/11 04:47:31;;;;;;;48.55;26.52;;;;;;;-8.44;90.96;99015.84;1756782;81;21109;-74
2022/12/11 04:49:57;;;;;;;50.70;26.67;;;;;;;-8.57;90.72;99016.45;1740265;81;22464;-74
2022/12/11 04:52:24;;;;;;;60.70;32.00;;;;;;;-8.65;90.72;99018.02;1736690;82;21189;-74
2022/12/11 04:54:50;;;;;;;52.57;27.93;;;;;;;-8.76;90.67;99024.53;1729771;82;21028;-74
2022/12/11 04:57:19;;;;;;;57.07;29.70;;;;;;;-8.83;90.68;99026.11;1734359;82;21051;-74
2022/12/11 04:59:46;;;;;;;54.98;29.23;;;;;;;-8.89;90.72;99024.31;1731363;80;21063;-74
2022/12/11 05:02:14;;;;;;;55.80;28.87;;;;;;;-8.99;90.50;99026.21;1715140;83;21058;-74
2022/12/11 05:04:42;;;;;;;46.73;25.55;;;;;;;-9.06;90.56;99016.81;1730533;81;21532;-74
2022/12/11 05:07:09;;;;;;;45.60;25.43;;;;;;;-9.09;90.60;99012.96;1733622;81;21430;-74
2022/12/11 05:09:36;;;;;;;45.83;25.87;;;;;;;-9.22;90.79;99012.27;1716976;83;21053;-74
2022/12/11 05:12:03;;;;;;;52.23;26.82;;;;;;;-9.18;91.03;99013.64;1738676;81;21144;-74
2022/12/11 05:14:31;;;;;;;49.20;28.35;;;;;;;-9.16;90.98;99008.59;1714904;82;21044;-74
2022/12/11 05:16:59;;;;;;;52.70;25.70;;;;;;;-9.12;91.12;99012.91;1716993;82;21591;-74
2022/12/11 05:19:26;;;;;;;49.93;26.27;;;;;;;-9.05;91.23;99012.19;1714544;83;21481;-74
2022/12/11 05:21:53;;;;;;;45.50;26.95;;;;;;;-8.99;91.29;99008.50;1730442;82;21515;-74
2022/12/11 05:24:19;;;;;;;38.98;24.15;;;;;;;-8.90;91.42;99004.91;1728301;82;21353;-74
2022/12/11 05:26:46;;;;;;;55.00;29.07;;;;;;;-8.82;91.26;99008.44;1727776;81;21037;-74
2022/12/11 05:29:13;;;;;;;52.43;25.83;;;;;;;-8.70;91.41;99004.42;1718649;82;21687;-74
2022/12/11 05:31:39;;;;;;;57.40;30.30;;;;;;;-8.62;91.46;99007.95;1716323;82;21921;-74
2022/12/11 05:34:06;;;;;;;51.37;28.30;;;;;;;-8.73;91.48;99004.38;1730760;82;21756;-74
2022/12/11 05:36:33;;;;;;;52.87;27.87;;;;;;;-8.52;91.76;98992.08;1725347;81;21053;-74
2022/12/11 05:39:03;;;;;;;58.17;30.17;;;;;;;-8.42;91.73;98995.21;1732089;82;21011;-74
2022/12/11 05:41:31;;;;;;;59.08;31.00;;;;;;;-8.30;91.82;99000.86;1737654;82;21104;-74
2022/12/11 05:43:59;;;;;;;49.50;27.73;;;;;;;-8.11;92.17;98996.95;1734489;82;20998;-74
2022/12/11 05:46:29;;;;;;;53.78;29.50;;;;;;;-7.86;92.41;99002.39;1728261;82;21609;-74
2022/12/11 05:49:01;;;;;;;55.48;27.52;;;;;;;-7.65;92.42;99000.14;1731117;82;21050;-73
2022/12/11 05:51:29;;;;;;;57.35;30.80;;;;;;;-7.45;92.53;99005.09;1732382;81;22228;-73
2022/12/11 05:53:57;;;;;;;53.15;30.00;;;;;;;-7.32;92.37;99002.28;1735119;81;21029;-74
2022/12/11 05:56:27;;;;;;;52.65;28.45;;;;;;;-7.21;92.28;98999.47;1734077;81;21110;-74
2022/12/11 05:58:55;;;;;;;49.67;27.73;;;;;;;-7.14;92.17;98996.60;1716856;81;21050;-75
2022/12/11 06:01:36;;;;;;;55.55;30.90;;;;;;;-7.02;92.30;98986.58;1740428;81;21063;-74
2022/12/11 06:04:05;;;;;;;49.60;27.02;;;;;;;-6.92;92.29;98991.75;1743009;81;21039;-74
2022/12/11 06:06:32;;;;;;;50.73;28.83;;;;;;;-6.78;92.41;98987.67;1734678;81;21481;-74
2022/12/11 06:09:00;;;;;;;48.48;28.67;;;;;;;-6.70;92.34;98988.60;1727572;81;21595;-74
2022/12/11 06:11:30;;;;;;;51.25;25.65;;;;;;;-6.64;92.26;98985.27;1731366;81;21100;-74
2022/12/11 06:13:58;;;;;;;51.98;29.00;;;;;;;-6.48;92.79;98981.20;1730085;81;21035;-74
2022/12/11 06:16:25;;;;;;;34.38;21.33;;;;;;;-6.29;92.92;98972.91;1726257;81;21720;-74
2022/12/11 06:18:52;;;;;;;38.98;23.07;;;;;;;-6.23;92.83;98970.41;1729490;81;21685;-74
2022/12/11 06:21:23;;;;;;;27.60;16.37;;;;;;;-5.85;94.17;98963.03;1727820;81;21570;-74
2022/12/11 06:23:53;;;;;;;21.48;13.05;;;;;;;-5.51;94.83;98967.47;1732167;81;22206;-74
2022/12/11 06:26:20;;;;;;;27.93;15.98;;;;;;;-5.29;95.28;98962.91;1725987;81;20970;-74
2022/12/11 06:28:47;;;;;;;;;;;;;;;-4.99;95.72;98959.59;1730809;81;21002;-75
2022/12/11 06:31:14;;;;;;;38.60;22.03;;;;;;;-4.83;95.51;98968.56;1749539;81;20195;-75
2022/12/11 06:33:40;;;;;;;33.75;18.92;;;;;;;-4.80;94.91;98963.47;1738717;81;21434;-75
2022/12/11 06:36:12;;;;;;;28.93;16.70;;;;;;;-4.68;95.17;98967.73;1753624;81;20969;-75
2022/12/11 06:38:39;;;;;;;40.90;23.47;;;;;;;-4.53;95.45;98976.27;1752878;81;21112;-74
2022/12/11 06:41:07;;;;;;;27.52;18.45;;;;;;;-4.54;94.96;98969.48;1729117;82;21108;-74
2022/12/11 06:43:36;;;;;;;39.30;24.52;;;;;;;-4.38;94.75;98970.33;1759971;81;21005;-74
2022/12/11 06:46:07;;;;;;;17.30;12.07;;;;;;;-4.20;95.15;98971.17;1728450;83;21097;-74
2022/12/11 06:48:34;;;;;;;16.95;11.15;;;;;;;-4.04;95.32;98970.33;1760202;81;21067;-74
2022/12/11 06:51:14;;;;;;;37.00;21.20;;;;;;;-3.99;94.93;98973.73;1750831;81;21097;-74
2022/12/11 06:53:42;;;;;;;35.20;20.95;;;;;;;-3.90;94.82;98969.88;1755517;81;21025;-75
2022/12/11 06:56:13;;;;;;;16.65;9.38;;;;;;;-3.90;94.66;98976.26;1751822;80;20977;-74
2022/12/11 06:58:42;;;;;;;19.02;10.90;;;;;;;-3.71;95.32;98974.97;1755112;81;21139;-75
2022/12/11 07:01:19;;;;;;;21.65;12.20;;;;;;;-3.50;95.77;98982.59;1755111;81;21101;-74
2022/12/11 07:03:47;;;;;;;20.15;12.23;;;;;;;-3.29;95.80;98982.09;1752709;80;21010;-75
2022/12/11 07:06:14;;;;;;;29.82;19.45;;;;;;;-3.17;95.60;98983.31;1755519;80;21108;-75
2022/12/11 07:08:41;;;;;;;;;;;;;;;-3.09;95.43;98980.30;1777171;80;21018;-74
2022/12/11 07:11:11;;;;;;;20.27;13.18;;;;;;;-3.05;95.29;98983.28;1780352;80;20096;-75
2022/12/11 07:13:38;;;;;;;26.10;16.60;;;;;;;-2.99;95.41;98976.02;1774582;80;21050;-75
2022/12/11 07:16:09;;;;;;;19.57;12.75;;;;;;;-2.92;95.33;98978.52;1775410;80;21093;-75
2022/12/11 07:18:33;;;;;;;14.45;8.55;;;;;;;-2.81;95.51;98980.18;1775549;80;20999;-75
2022/12/11 07:21:00;;;;;;;16.87;10.53;;;;;;;-2.67;95.77;98983.51;1780161;80;21069;-75
2022/12/11 07:23:28;;;;;;;14.18;9.68;;;;;;;-2.53;95.79;98980.44;1778197;80;21106;-75
2022/12/11 07:25:56;;;;;;;9.95;6.72;;;;;;;-2.43;95.76;98977.84;1780487;80;20970;-75
2022/12/11 07:28:23;;;;;;;12.88;8.70;;;;;;;-2.35;95.81;98976.05;1778635;80;21066;-74
2022/12/11 07:30:50;;;;;;;12.13;8.00;;;;;;;-2.29;95.67;98974.75;1777962;80;21034;-74
2022/12/11 07:33:16;;;;;;;9.90;7.20;;;;;;;-2.34;95.32;98972.66;1770444;80;21593;-75
2022/12/11 07:35:44;;;;;;;12.43;8.60;;;;;;;-2.28;95.61;98964.93;1782319;80;21057;-74
2022/12/11 07:38:10;;;;;;;12.45;8.75;;;;;;;-2.31;95.46;98959.84;1769243;80;21101;-75
2022/12/11 07:40:37;;;;;;;9.60;7.45;;;;;;;-2.26;95.54;98964.50;1775530;80;21035;-75
2022/12/11 07:43:04;;;;;;;8.25;6.17;;;;;;;-2.21;95.69;98960.20;1775279;80;21116;-75
2022/12/11 07:45:30;;;;;;;7.53;5.95;;;;;;;-2.16;95.77;98960.14;1775810;80;20978;-75
2022/12/11 07:47:58;;;;;;;8.77;6.20;;;;;;;-2.16;95.67;98963.55;1779840;80;21034;-75
2022/12/11 07:50:24;;;;;;;7.72;6.05;;;;;;;-2.14;95.70;98963.11;1778789;80;21649;-74
2022/12/11 07:52:51;;;;;;;9.53;7.20;;;;;;;-2.14;95.63;98961.83;1772209;80;20987;-75
2022/12/11 07:55:18;;;;;;;11.20;6.58;;;;;;;-2.18;95.45;98953.78;1768334;80;21097;-75
2022/12/11 07:57:44;;;;;;;10.78;5.97;;;;;;;-2.22;95.41;98947.41;1768270;80;21096;-75
2022/12/11 08:00:11;;;;;;;11.35;7.08;;;;;;;-2.19;95.49;98955.90;1736277;82;21048;-74
2022/12/11 08:02:38;;;;;;;13.43;9.30;;;;;;;-2.22;95.45;98950.81;1707397;83;21033;-75
2022/12/11 08:05:06;;;;;;;12.05;7.87;;;;;;;-2.28;95.23;98948.31;1723127;82;21033;-74
2022/12/11 08:07:36;;;;;;;11.48;7.78;;;;;;;-2.34;95.20;98950.92;1700815;83;21022;-75
2022/12/11 08:10:04;;;;;;;13.80;9.90;;;;;;;-2.28;95.48;98956.83;1700458;84;20959;-75
2022/12/11 08:12:31;;;;;;;15.30;10.88;;;;;;;-2.28;95.35;98951.71;1725324;82;21066;-75
2022/12/11 08:14:57;;;;;;;15.88;10.40;;;;;;;-2.27;95.47;98953.83;1722307;81;21489;-74
2022/12/11 08:17:24;;;;;;;15.65;9.98;;;;;;;-2.21;95.72;98952.53;1726435;81;21085;-74
2022/12/11 08:19:51;;;;;;;18.65;12.95;;;;;;;-2.12;95.82;98960.12;1728449;82;21021;-75
2022/12/11 08:22:17;;;;;;;23.07;14.55;;;;;;;-2.05;95.73;98955.34;1726996;82;21139;-75
2022/12/11 08:24:46;;;;;;;18.67;12.10;;;;;;;-2.15;94.93;98966.54;1723496;82;21564;-75
2022/12/11 08:27:12;;;;;;;13.40;10.72;;;;;;;-2.31;94.84;98961.96;1710799;83;21568;-75
2022/12/11 08:29:39;;;;;;;14.77;11.80;;;;;;;-2.31;95.23;98971.34;1726876;82;21045;-75
2022/12/11 08:32:05;;;;;;;18.52;12.58;;;;;;;-2.35;95.12;98973.49;1725301;82;21094;-75
2022/12/11 08:34:32;;;;;;;16.05;12.53;;;;;;;-2.37;95.25;98976.52;1705699;83;21050;-75
2022/12/11 08:36:59;;;;;;;15.78;12.58;;;;;;;-2.30;95.56;98966.23;1730467;82;20994;-74
2022/12/11 08:39:25;;;;;;;19.48;13.62;;;;;;;-2.18;95.79;98970.41;1729688;82;21173;-75
2022/12/11 08:41:52;;;;;;;26.25;19.77;;;;;;;-2.13;95.67;98971.22;1727988;81;20968;-74
2022/12/11 08:44:18;;;;;;;36.10;26.77;;;;;;;-2.07;95.62;98976.28;1726426;81;21101;-75
2022/12/11 08:46:45;;;;;;;25.15;18.82;;;;;;;-2.05;95.42;98974.53;1701324;84;21010;-75
2022/12/11 08:49:12;;;;;;;23.07;19.00;;;;;;;-2.03;95.31;98981.77;1729531;82;21355;-75
2022/12/11 08:51:39;;;;;;;18.80;14.20;;;;;;;-2.05;95.30;98978.81;1744108;80;21061;-75
2022/12/11 08:54:06;;;;;;;16.97;11.43;;;;;;;-2.06;95.42;98974.13;1753730;80;21101;-75
2022/12/11 08:56:32;;;;;;;15.40;11.50;;;;;;;-2.04;95.59;98975.41;1750733;80;21584;-75
2022/12/11 08:59:05;;;;;;;15.37;10.77;;;;;;;-2.01;95.70;98979.66;1728301;80;21034;-75
2022/12/11 09:01:33;;;;;;;14.47;11.12;;;;;;;-1.96;95.83;98983.88;1756115;80;21098;-75
2022/12/11 09:03:59;;;;;;;16.35;11.88;;;;;;;-1.90;95.87;98986.80;1753981;80;20998;-75
2022/12/11 09:06:29;;;;;;;15.57;10.73;;;;;;;-1.91;95.71;98973.14;1755679;80;21025;-75
2022/12/11 09:09:00;;;;;;;17.07;11.18;;;;;;;-1.95;95.67;98971.92;1759977;80;21771;-75
2022/12/11 09:11:34;;;;;;;15.20;11.05;;;;;;;-1.96;95.66;98968.92;1759220;80;21039;-75
2022/12/11 09:14:04;;;;;;;15.83;11.83;;;;;;;-1.91;95.89;98958.22;1751752;80;21085;-75
2022/12/11 09:16:39;;;;;;;17.60;13.25;;;;;;;-1.87;95.86;98956.07;1747740;80;21050;-75
2022/12/11 09:19:10;;;;;;;20.05;13.90;;;;;;;-1.85;95.79;98956.87;1749751;80;21112;-74
2022/12/11 09:21:37;;;;;;;15.90;12.07;;;;;;;-1.85;95.78;98956.87;1754865;80;21688;-75
2022/12/11 09:24:04;;;;;;;17.43;11.70;;;;;;;-1.83;95.86;98951.33;1702402;80;21053;-75
2022/12/11 09:26:32;;;;;;;17.23;12.58;;;;;;;-1.77;96.03;98953.82;1736693;81;21132;-75
2022/12/11 09:28:58;;;;;;;18.73;12.15;;;;;;;-1.70;96.10;98956.75;1740305;81;21626;-75
2022/12/11 09:31:28;;;;;;;15.70;12.28;;;;;;;-1.61;96.37;98950.25;1719288;80;21043;-75
2022/12/11 09:33:59;;;;;;;17.70;12.68;;;;;;;-1.49;96.32;98953.53;1750706;80;21083;-75
2022/12/11 09:36:26;;;;;;;15.72;10.75;;;;;;;-1.31;96.60;98953.34;1757906;80;21132;-75
2022/12/11 09:38:53;;;;;;;21.62;13.93;;;;;;;-1.11;96.60;98948.42;1739133;81;21096;-75
2022/12/11 09:41:28;;;;;;;12.73;9.53;;;;;;;-1.05;96.34;98950.45;1721007;82;21111;-75
2022/12/11 09:44:34;;;;;;;13.03;9.63;;;;;;;-0.96;96.53;98939.23;1722768;82;21061;-75
2022/12/11 09:47:01;;;;;;;15.58;9.78;;;;;;;-0.85;96.69;98940.38;1718716;82;21691;-75
2022/12/11 09:49:40;;;;;;;12.77;9.90;;;;;;;-0.79;96.62;98932.16;1728532;81;21115;-75
2022/12/11 09:52:18;;;;;;;16.30;10.43;;;;;;;-0.79;96.51;98929.59;1741280;81;21187;-75
2022/12/11 09:54:55;;;;;;;16.93;12.25;;;;;;;-0.72;96.71;98923.53;1742585;81;21085;-75
2022/12/11 09:58:04;;;;;;;18.52;12.73;;;;;;;-0.69;96.61;98932.45;1745136;81;21179;-74
2022/12/11 10:00:47;;;;;;;18.57;12.33;;;;;;;-0.74;96.26;98920.13;1763235;80;21115;-75
2022/12/11 10:03:51;;;;;;;14.70;10.10;;;;;;;-0.77;96.43;98919.34;1754243;81;21140;-75
2022/12/11 10:06:45;;;;;;;20.12;13.93;;;;;;;-0.73;96.52;98920.56;1749406;81;21172;-74
2022/12/11 10:09:29;;;;;;;16.55;11.10;;;;;;;-0.65;96.68;98926.00;1745980;81;21060;-75
2022/12/11 10:12:16;;;;;;;14.40;9.70;;;;;;;-0.51;96.98;98913.81;1731600;81;21061;-75
2022/12/11 10:15:07;;;;;;;14.23;9.40;;;;;;;-0.30;97.20;98921.18;1750585;81;21207;-75
2022/12/11 10:17:38;;;;;;;14.05;10.10;;;;;;;-0.16;97.02;98912.41;1745632;80;21440;-75
2022/12/11 10:20:25;;;;;;;14.33;10.55;;;;;;;-0.04;96.97;98917.33;1755222;80;21077;-74
2022/12/11 10:22:53;;;;;;;;;;;;;;;-0.01;96.85;98914.70;1752807;81;21128;-73
2022/12/11 10:25:43;;;;;;;13.62;9.00;;;;;;;-0.09;97.12;98915.27;1746930;80;20179;-75
2022/12/11 10:28:17;;;;;;;13.43;8.63;;;;;;;-0.06;97.42;98910.92;1753310;80;21573;-74
2022/12/11 10:31:01;;;;;;;10.50;7.08;;;;;;;0.06;97.59;98906.03;1746198;80;21259;-74
2022/12/11 10:34:01;;;;;;;12.53;7.40;;;;;;;0.32;97.49;98902.14;1746063;80;21120;-74
2022/12/11 10:36:34;;;;;;;11.50;6.75;;;;;;;0.46;97.11;98900.16;1749886;81;21108;-74
2022/12/11 10:39:02;;;;;;;11.85;8.23;;;;;;;0.54;96.86;98893.14;1752746;80;21116;-74
2022/12/11 10:41:44;;;;;;;11.28;6.65;;;;;;;0.52;96.64;98892.31;1758930;80;21593;-74
2022/12/11 10:44:21;;;;;;;12.05;6.58;;;;;;;0.50;96.48;98895.34;1750012;80;21061;-74
2022/12/11 10:47:07;;;;;;;8.33;6.22;;;;;;;0.54;96.65;98894.42;1753787;80;22258;-74
2022/12/11 10:49:37;;;;;;;8.27;6.20;;;;;;;0.64;96.45;98889.52;1742353;81;21092;-74
2022/12/11 10:52:23;;;;;;;9.05;6.78;;;;;;;0.66;96.39;98881.33;1717558;81;21093;-74
2022/12/11 10:55:07;;;;;;;9.97;6.37;;;;;;;0.61;95.97;98867.72;1743099;81;21639;-74
2022/12/11 10:57:38;;;;;;;8.10;5.00;;;;;;;0.63;96.17;98868.55;1701903;83;21027;-74
2022/12/11 11:00:08;;;;;;;11.80;5.97;;;;;;;0.76;96.38;98875.57;1722952;82;21005;-75
2022/12/11 11:02:39;;;;;;;7.40;5.22;;;;;;;0.81;96.17;98875.45;1725069;81;21020;-74
2022/12/11 11:05:17;;;;;;;6.75;4.62;;;;;;;0.83;96.07;98866.83;1745499;81;21069;-74
2022/12/11 11:07:45;;;;;;;6.80;4.60;;;;;;;0.87;95.98;98865.06;1743397;81;20980;-74
2022/12/11 11:10:16;;;;;;;7.22;5.00;;;;;;;0.82;95.65;98861.75;1742549;81;21074;-74
2022/12/11 11:12:49;;;;;;;6.08;4.95;;;;;;;0.83;95.78;98854.43;1740686;81;20997;-74
2022/12/11 11:15:29;;;;;;;5.58;4.20;;;;;;;0.88;95.94;98864.17;1750342;80;21092;-75
2022/12/11 11:18:03;;;;;;;6.62;4.22;;;;;;;0.90;95.61;98861.14;1722541;82;21035;-75
2022/12/11 11:20:33;;;;;;;4.67;3.40;;;;;;;0.88;95.42;98859.03;1747052;81;21108;-75
2022/12/11 11:23:04;;;;;;;6.10;4.28;;;;;;;0.88;95.27;98855.18;1741710;80;21091;-74
2022/12/11 11:25:34;;;;;;;5.45;4.40;;;;;;;0.86;95.14;98853.08;1729758;81;21053;-75
2022/12/11 11:28:06;;;;;;;5.33;4.15;;;;;;;0.99;95.01;98854.50;1742253;81;21037;-73
2022/12/11 11:30:40;;;;;;;5.90;4.20;;;;;;;0.97;94.79;98842.12;1699389;84;21560;-74
2022/12/11 11:33:19;;;;;;;4.72;3.27;;;;;;;0.93;94.76;98838.38;1742505;81;21553;-74
2022/12/11 11:35:57;;;;;;;6.30;4.05;;;;;;;0.87;94.65;98834.23;1746938;81;21096;-75
2022/12/11 11:38:44;;;;;;;5.05;3.80;;;;;;;0.76;94.54;98832.33;1746856;81;21117;-74
2022/12/11 11:41:29;;;;;;;5.12;3.42;;;;;;;0.77;94.34;98825.86;1745449;80;21039;-74
2022/12/11 11:44:07;;;;;;;5.20;3.00;;;;;;;0.77;94.35;98827.59;1700537;82;21147;-74
2022/12/11 11:46:51;;;;;;;4.87;3.42;;;;;;;0.69;93.86;98823.89;1690920;83;21070;-74
2022/12/11 11:49:31;;;;;;;5.42;3.67;;;;;;;0.49;93.88;98828.61;1738175;81;21017;-74
2022/12/11 11:52:29;;;;;;;4.53;2.87;;;;;;;0.42;94.17;98831.73;1735682;81;21719;-73
2022/12/11 11:55:18;;;;;;;6.15;3.52;;;;;;;0.36;94.17;98824.16;1722202;82;21068;-74